sensor_id;sensor_type;location;lat;lon;timestamp;P1;durP1;ratioP1;P2;durP2;ratioP2
75814;SDS011;70031;45.570;14.228;2023-07-16T00:00:50;5.32;;;3.33;;
75814;SDS011;70031;45.570;14.228;2023-07-16T00:02:51;5.57;;;3.45;;
75814;SDS011;70031;45.570;14.228;2023-07-16T00:04:51;5.35;;;3.33;;
75814;SDS011;70031;45.570;14.228;2023-07-16T00:06:52;7.00;;;3.20;;
75814;SDS011;70031;45.570;14.228;2023-07-16T00:08:52;6.20;;;3.50;;
75814;SDS011;70031;45.570;14.228;2023-07-16T00:10:53;5.78;;;3.10;;
75814;SDS011;70031;45.570;14.228;2023-07-16T00:12:53;5.15;;;3.03;;
75814;SDS011;70031;45.570;14.228;2023-07-16T00:14:54;3.88;;;2.45;;
75814;SDS011;70031;45.570;14.228;2023-07-16T00:16:55;5.13;;;2.50;;
75814;SDS011;70031;45.570;14.228;2023-07-16T00:18:55;4.75;;;2.78;;
75814;SDS011;70031;45.570;14.228;2023-07-16T00:20:56;5.53;;;3.45;;
75814;SDS011;70031;45.570;14.228;2023-07-16T00:22:56;6.55;;;2.88;;
75814;SDS011;70031;45.570;14.228;2023-07-16T00:24:57;5.78;;;3.28;;
75814;SDS011;70031;45.570;14.228;2023-07-16T00:26:57;6.70;;;3.20;;
75814;SDS011;70031;45.570;14.228;2023-07-16T00:28:58;5.45;;;2.90;;
75814;SDS011;70031;45.570;14.228;2023-07-16T00:30:58;7.43;;;3.70;;
75814;SDS011;70031;45.570;14.228;2023-07-16T00:33:01;5.90;;;3.50;;
75814;SDS011;70031;45.570;14.228;2023-07-16T00:35:04;5.30;;;3.00;;
75814;SDS011;70031;45.570;14.228;2023-07-16T00:37:05;9.40;;;3.40;;
75814;SDS011;70031;45.570;14.228;2023-07-16T00:39:06;6.68;;;3.20;;
75814;SDS011;70031;45.570;14.228;2023-07-16T00:41:06;4.95;;;3.03;;
75814;SDS011;70031;45.570;14.228;2023-07-16T00:43:07;5.97;;;3.20;;
75814;SDS011;70031;45.570;14.228;2023-07-16T00:45:08;5.35;;;3.00;;
75814;SDS011;70031;45.570;14.228;2023-07-16T00:47:12;7.40;;;3.10;;
75814;SDS011;70031;45.570;14.228;2023-07-16T00:49:13;5.60;;;3.22;;
75814;SDS011;70031;45.570;14.228;2023-07-16T00:51:16;8.63;;;3.53;;
75814;SDS011;70031;45.570;14.228;2023-07-16T00:53:19;5.32;;;3.10;;
75814;SDS011;70031;45.570;14.228;2023-07-16T00:55:20;4.88;;;3.13;;
75814;SDS011;70031;45.570;14.228;2023-07-16T00:57:21;4.07;;;2.15;;
75814;SDS011;70031;45.570;14.228;2023-07-16T00:59:22;4.45;;;2.83;;
75814;SDS011;70031;45.570;14.228;2023-07-16T01:01:22;7.57;;;3.50;;
75814;SDS011;70031;45.570;14.228;2023-07-16T01:03:22;6.35;;;3.30;;
75814;SDS011;70031;45.570;14.228;2023-07-16T01:05:23;5.50;;;3.38;;
75814;SDS011;70031;45.570;14.228;2023-07-16T01:09:27;7.82;;;3.25;;
75814;SDS011;70031;45.570;14.228;2023-07-16T01:11:29;6.57;;;3.75;;
75814;SDS011;70031;45.570;14.228;2023-07-16T01:13:30;7.07;;;4.13;;
75814;SDS011;70031;45.570;14.228;2023-07-16T01:15:32;5.57;;;3.53;;
75814;SDS011;70031;45.570;14.228;2023-07-16T01:17:32;8.95;;;4.40;;
75814;SDS011;70031;45.570;14.228;2023-07-16T01:19:33;6.85;;;3.75;;
75814;SDS011;70031;45.570;14.228;2023-07-16T01:21:35;5.85;;;3.38;;
75814;SDS011;70031;45.570;14.228;2023-07-16T01:24:05;8.75;;;3.60;;
75814;SDS011;70031;45.570;14.228;2023-07-16T01:26:31;6.32;;;3.67;;
75814;SDS011;70031;45.570;14.228;2023-07-16T01:31:10;5.00;;;3.05;;
75814;SDS011;70031;45.570;14.228;2023-07-16T01:33:11;7.63;;;3.38;;
75814;SDS011;70031;45.570;14.228;2023-07-16T01:35:13;5.43;;;3.42;;
75814;SDS011;70031;45.570;14.228;2023-07-16T01:37:14;8.73;;;3.35;;
75814;SDS011;70031;45.570;14.228;2023-07-16T01:39:15;5.57;;;3.58;;
75814;SDS011;70031;45.570;14.228;2023-07-16T01:41:16;6.75;;;3.25;;
75814;SDS011;70031;45.570;14.228;2023-07-16T01:43:17;5.03;;;3.35;;
75814;SDS011;70031;45.570;14.228;2023-07-16T01:45:17;4.95;;;2.70;;
75814;SDS011;70031;45.570;14.228;2023-07-16T01:49:34;7.88;;;3.30;;
75814;SDS011;70031;45.570;14.228;2023-07-16T01:51:35;3.88;;;2.50;;
75814;SDS011;70031;45.570;14.228;2023-07-16T01:53:35;6.63;;;2.65;;
75814;SDS011;70031;45.570;14.228;2023-07-16T01:55:35;8.07;;;2.95;;
75814;SDS011;70031;45.570;14.228;2023-07-16T01:57:36;4.95;;;2.95;;
75814;SDS011;70031;45.570;14.228;2023-07-16T01:59:36;5.03;;;2.80;;
75814;SDS011;70031;45.570;14.228;2023-07-16T02:01:37;4.78;;;2.97;;
75814;SDS011;70031;45.570;14.228;2023-07-16T02:03:37;6.00;;;3.40;;
75814;SDS011;70031;45.570;14.228;2023-07-16T02:05:37;5.45;;;3.28;;
75814;SDS011;70031;45.570;14.228;2023-07-16T02:07:38;6.70;;;3.38;;
75814;SDS011;70031;45.570;14.228;2023-07-16T02:09:38;5.75;;;2.78;;
75814;SDS011;70031;45.570;14.228;2023-07-16T02:11:40;5.20;;;3.15;;
75814;SDS011;70031;45.570;14.228;2023-07-16T02:13:40;9.15;;;3.40;;
75814;SDS011;70031;45.570;14.228;2023-07-16T02:15:42;6.05;;;3.45;;
75814;SDS011;70031;45.570;14.228;2023-07-16T02:17:43;7.82;;;2.95;;
75814;SDS011;70031;45.570;14.228;2023-07-16T02:19:43;7.25;;;3.50;;
75814;SDS011;70031;45.570;14.228;2023-07-16T02:21:44;8.48;;;3.22;;
75814;SDS011;70031;45.570;14.228;2023-07-16T02:23:44;20.60;;;2.53;;
75814;SDS011;70031;45.570;14.228;2023-07-16T02:25:44;7.28;;;2.80;;
75814;SDS011;70031;45.570;14.228;2023-07-16T02:27:45;4.28;;;2.42;;
75814;SDS011;70031;45.570;14.228;2023-07-16T02:29:45;5.35;;;2.88;;
75814;SDS011;70031;45.570;14.228;2023-07-16T02:31:46;5.10;;;3.42;;
75814;SDS011;70031;45.570;14.228;2023-07-16T02:33:48;5.07;;;3.17;;
75814;SDS011;70031;45.570;14.228;2023-07-16T02:35:49;6.53;;;3.05;;
75814;SDS011;70031;45.570;14.228;2023-07-16T02:37:51;5.35;;;3.65;;
75814;SDS011;70031;45.570;14.228;2023-07-16T02:39:52;6.78;;;3.20;;
75814;SDS011;70031;45.570;14.228;2023-07-16T02:41:52;5.93;;;3.03;;
75814;SDS011;70031;45.570;14.228;2023-07-16T02:43:59;4.88;;;3.00;;
75814;SDS011;70031;45.570;14.228;2023-07-16T02:46:01;5.20;;;2.95;;
75814;SDS011;70031;45.570;14.228;2023-07-16T02:48:01;4.55;;;2.97;;
75814;SDS011;70031;45.570;14.228;2023-07-16T02:50:02;5.55;;;3.00;;
75814;SDS011;70031;45.570;14.228;2023-07-16T02:52:03;6.20;;;3.10;;
75814;SDS011;70031;45.570;14.228;2023-07-16T02:54:03;5.70;;;3.20;;
75814;SDS011;70031;45.570;14.228;2023-07-16T02:56:04;5.47;;;3.42;;
75814;SDS011;70031;45.570;14.228;2023-07-16T02:58:04;3.78;;;2.47;;
75814;SDS011;70031;45.570;14.228;2023-07-16T03:00:05;5.45;;;3.13;;
75814;SDS011;70031;45.570;14.228;2023-07-16T03:02:05;7.03;;;3.05;;
75814;SDS011;70031;45.570;14.228;2023-07-16T03:04:06;4.53;;;2.67;;
75814;SDS011;70031;45.570;14.228;2023-07-16T03:06:06;5.93;;;2.78;;
75814;SDS011;70031;45.570;14.228;2023-07-16T03:08:07;7.10;;;3.63;;
75814;SDS011;70031;45.570;14.228;2023-07-16T03:10:07;3.78;;;2.70;;
75814;SDS011;70031;45.570;14.228;2023-07-16T03:12:08;5.05;;;2.97;;
75814;SDS011;70031;45.570;14.228;2023-07-16T03:14:08;6.50;;;3.05;;
75814;SDS011;70031;45.570;14.228;2023-07-16T03:16:09;5.28;;;3.22;;
75814;SDS011;70031;45.570;14.228;2023-07-16T03:18:09;6.35;;;2.70;;
75814;SDS011;70031;45.570;14.228;2023-07-16T03:20:10;8.82;;;3.45;;
75814;SDS011;70031;45.570;14.228;2023-07-16T03:22:10;6.25;;;2.97;;
75814;SDS011;70031;45.570;14.228;2023-07-16T03:24:11;5.13;;;3.22;;
75814;SDS011;70031;45.570;14.228;2023-07-16T03:26:12;6.50;;;3.20;;
75814;SDS011;70031;45.570;14.228;2023-07-16T03:28:12;6.30;;;2.80;;
75814;SDS011;70031;45.570;14.228;2023-07-16T03:30:13;7.30;;;3.10;;
75814;SDS011;70031;45.570;14.228;2023-07-16T03:32:13;9.13;;;3.45;;
75814;SDS011;70031;45.570;14.228;2023-07-16T03:34:14;7.15;;;3.40;;
75814;SDS011;70031;45.570;14.228;2023-07-16T03:36:14;8.45;;;3.30;;
75814;SDS011;70031;45.570;14.228;2023-07-16T03:38:15;11.77;;;3.35;;
75814;SDS011;70031;45.570;14.228;2023-07-16T03:40:16;7.97;;;3.50;;
75814;SDS011;70031;45.570;14.228;2023-07-16T03:44:18;7.50;;;3.33;;
75814;SDS011;70031;45.570;14.228;2023-07-16T03:46:18;5.18;;;3.05;;
75814;SDS011;70031;45.570;14.228;2023-07-16T03:48:19;5.47;;;2.95;;
75814;SDS011;70031;45.570;14.228;2023-07-16T03:50:19;5.63;;;3.05;;
75814;SDS011;70031;45.570;14.228;2023-07-16T03:52:20;9.27;;;3.05;;
75814;SDS011;70031;45.570;14.228;2023-07-16T03:54:20;7.00;;;3.63;;
75814;SDS011;70031;45.570;14.228;2023-07-16T03:56:21;10.38;;;4.03;;
75814;SDS011;70031;45.570;14.228;2023-07-16T03:58:21;8.15;;;3.50;;
75814;SDS011;70031;45.570;14.228;2023-07-16T04:00:23;7.55;;;3.90;;
75814;SDS011;70031;45.570;14.228;2023-07-16T04:02:23;9.88;;;4.05;;
75814;SDS011;70031;45.570;14.228;2023-07-16T04:04:24;7.03;;;4.28;;
75814;SDS011;70031;45.570;14.228;2023-07-16T04:06:25;8.60;;;4.18;;
75814;SDS011;70031;45.570;14.228;2023-07-16T04:08:25;6.68;;;3.83;;
75814;SDS011;70031;45.570;14.228;2023-07-16T04:10:25;12.52;;;5.03;;
75814;SDS011;70031;45.570;14.228;2023-07-16T04:12:26;9.75;;;4.40;;
75814;SDS011;70031;45.570;14.228;2023-07-16T04:14:26;10.30;;;4.38;;
75814;SDS011;70031;45.570;14.228;2023-07-16T04:16:26;8.43;;;4.78;;
75814;SDS011;70031;45.570;14.228;2023-07-16T04:18:27;8.05;;;3.90;;
75814;SDS011;70031;45.570;14.228;2023-07-16T04:20:27;14.38;;;5.25;;
75814;SDS011;70031;45.570;14.228;2023-07-16T04:22:28;9.52;;;4.75;;
75814;SDS011;70031;45.570;14.228;2023-07-16T04:24:29;8.82;;;4.57;;
75814;SDS011;70031;45.570;14.228;2023-07-16T04:26:29;7.15;;;3.95;;
75814;SDS011;70031;45.570;14.228;2023-07-16T04:28:30;12.45;;;5.18;;
75814;SDS011;70031;45.570;14.228;2023-07-16T04:30:33;11.70;;;4.40;;
75814;SDS011;70031;45.570;14.228;2023-07-16T04:32:33;12.52;;;4.20;;
75814;SDS011;70031;45.570;14.228;2023-07-16T04:34:33;10.15;;;4.25;;
75814;SDS011;70031;45.570;14.228;2023-07-16T04:36:34;13.55;;;4.40;;
75814;SDS011;70031;45.570;14.228;2023-07-16T04:38:37;10.63;;;4.60;;
75814;SDS011;70031;45.570;14.228;2023-07-16T04:40:37;7.55;;;4.30;;
75814;SDS011;70031;45.570;14.228;2023-07-16T04:42:37;8.23;;;4.75;;
75814;SDS011;70031;45.570;14.228;2023-07-16T04:44:38;8.60;;;4.22;;
75814;SDS011;70031;45.570;14.228;2023-07-16T04:46:38;8.68;;;4.93;;
75814;SDS011;70031;45.570;14.228;2023-07-16T04:48:38;7.85;;;4.88;;
75814;SDS011;70031;45.570;14.228;2023-07-16T04:50:39;9.23;;;4.68;;
75814;SDS011;70031;45.570;14.228;2023-07-16T04:52:39;8.18;;;4.82;;
75814;SDS011;70031;45.570;14.228;2023-07-16T04:54:40;8.45;;;4.90;;
75814;SDS011;70031;45.570;14.228;2023-07-16T04:56:40;11.13;;;5.10;;
75814;SDS011;70031;45.570;14.228;2023-07-16T04:58:41;8.65;;;5.80;;
75814;SDS011;70031;45.570;14.228;2023-07-16T05:00:42;11.60;;;5.60;;
75814;SDS011;70031;45.570;14.228;2023-07-16T05:02:42;9.65;;;5.68;;
75814;SDS011;70031;45.570;14.228;2023-07-16T05:04:43;8.50;;;5.18;;
75814;SDS011;70031;45.570;14.228;2023-07-16T05:06:48;11.32;;;5.57;;
75814;SDS011;70031;45.570;14.228;2023-07-16T05:08:51;9.80;;;5.80;;
75814;SDS011;70031;45.570;14.228;2023-07-16T05:10:52;10.75;;;6.60;;
75814;SDS011;70031;45.570;14.228;2023-07-16T05:12:52;9.77;;;6.30;;
75814;SDS011;70031;45.570;14.228;2023-07-16T05:14:53;14.25;;;6.10;;
75814;SDS011;70031;45.570;14.228;2023-07-16T05:16:53;11.05;;;6.60;;
75814;SDS011;70031;45.570;14.228;2023-07-16T05:18:54;9.77;;;6.32;;
75814;SDS011;70031;45.570;14.228;2023-07-16T05:23:03;16.05;;;7.18;;
75814;SDS011;70031;45.570;14.228;2023-07-16T05:25:07;19.20;;;6.78;;
75814;SDS011;70031;45.570;14.228;2023-07-16T05:27:11;13.57;;;7.80;;
75814;SDS011;70031;45.570;14.228;2023-07-16T05:29:14;10.27;;;6.75;;
75814;SDS011;70031;45.570;14.228;2023-07-16T05:31:17;12.43;;;7.40;;
75814;SDS011;70031;45.570;14.228;2023-07-16T05:33:33;15.27;;;8.18;;
75814;SDS011;70031;45.570;14.228;2023-07-16T05:35:35;17.60;;;7.53;;
75814;SDS011;70031;45.570;14.228;2023-07-16T05:38:07;13.23;;;6.93;;
75814;SDS011;70031;45.570;14.228;2023-07-16T05:40:07;12.43;;;7.45;;
75814;SDS011;70031;45.570;14.228;2023-07-16T05:42:13;9.57;;;6.57;;
75814;SDS011;70031;45.570;14.228;2023-07-16T05:44:29;11.15;;;5.90;;
75814;SDS011;70031;45.570;14.228;2023-07-16T05:46:51;13.07;;;6.75;;
75814;SDS011;70031;45.570;14.228;2023-07-16T05:48:58;14.20;;;5.90;;
75814;SDS011;70031;45.570;14.228;2023-07-16T05:50:59;12.50;;;6.22;;
75814;SDS011;70031;45.570;14.228;2023-07-16T05:52:59;11.13;;;6.60;;
75814;SDS011;70031;45.570;14.228;2023-07-16T05:54:59;11.50;;;6.25;;
75814;SDS011;70031;45.570;14.228;2023-07-16T05:57:00;13.10;;;6.20;;
75814;SDS011;70031;45.570;14.228;2023-07-16T05:59:00;11.43;;;5.30;;
75814;SDS011;70031;45.570;14.228;2023-07-16T06:01:01;6.75;;;4.30;;
75814;SDS011;70031;45.570;14.228;2023-07-16T06:03:02;8.57;;;4.75;;
75814;SDS011;70031;45.570;14.228;2023-07-16T06:05:02;8.38;;;4.53;;
75814;SDS011;70031;45.570;14.228;2023-07-16T06:07:03;7.93;;;4.25;;
75814;SDS011;70031;45.570;14.228;2023-07-16T06:09:04;5.15;;;3.42;;
75814;SDS011;70031;45.570;14.228;2023-07-16T06:11:04;6.50;;;4.20;;
75814;SDS011;70031;45.570;14.228;2023-07-16T06:13:05;5.97;;;3.63;;
75814;SDS011;70031;45.570;14.228;2023-07-16T06:15:06;5.90;;;3.88;;
75814;SDS011;70031;45.570;14.228;2023-07-16T06:17:06;5.68;;;3.17;;
75814;SDS011;70031;45.570;14.228;2023-07-16T06:19:07;8.95;;;3.47;;
75814;SDS011;70031;45.570;14.228;2023-07-16T06:21:07;13.27;;;4.22;;
75814;SDS011;70031;45.570;14.228;2023-07-16T06:23:09;5.28;;;3.38;;
75814;SDS011;70031;45.570;14.228;2023-07-16T06:25:12;5.47;;;3.40;;
75814;SDS011;70031;45.570;14.228;2023-07-16T06:27:12;10.20;;;3.88;;
75814;SDS011;70031;45.570;14.228;2023-07-16T06:29:13;7.15;;;3.47;;
75814;SDS011;70031;45.570;14.228;2023-07-16T06:31:13;7.63;;;3.20;;
75814;SDS011;70031;45.570;14.228;2023-07-16T06:33:14;10.05;;;3.92;;
75814;SDS011;70031;45.570;14.228;2023-07-16T06:35:14;8.20;;;3.75;;
75814;SDS011;70031;45.570;14.228;2023-07-16T06:37:15;5.13;;;3.10;;
75814;SDS011;70031;45.570;14.228;2023-07-16T06:39:15;7.63;;;3.92;;
75814;SDS011;70031;45.570;14.228;2023-07-16T06:41:16;8.52;;;3.35;;
75814;SDS011;70031;45.570;14.228;2023-07-16T06:43:16;4.80;;;3.05;;
75814;SDS011;70031;45.570;14.228;2023-07-16T06:45:17;5.20;;;3.20;;
75814;SDS011;70031;45.570;14.228;2023-07-16T06:47:18;4.93;;;2.67;;
75814;SDS011;70031;45.570;14.228;2023-07-16T06:49:21;4.55;;;2.72;;
75814;SDS011;70031;45.570;14.228;2023-07-16T06:51:21;4.90;;;3.13;;
75814;SDS011;70031;45.570;14.228;2023-07-16T06:53:22;6.15;;;3.30;;
75814;SDS011;70031;45.570;14.228;2023-07-16T06:55:23;6.25;;;3.20;;
75814;SDS011;70031;45.570;14.228;2023-07-16T06:57:23;4.97;;;3.03;;
75814;SDS011;70031;45.570;14.228;2023-07-16T06:59:23;6.75;;;3.35;;
75814;SDS011;70031;45.570;14.228;2023-07-16T07:01:27;8.82;;;3.35;;
75814;SDS011;70031;45.570;14.228;2023-07-16T07:03:28;5.93;;;3.20;;
75814;SDS011;70031;45.570;14.228;2023-07-16T07:05:28;5.43;;;3.10;;
75814;SDS011;70031;45.570;14.228;2023-07-16T07:07:28;8.32;;;3.10;;
75814;SDS011;70031;45.570;14.228;2023-07-16T07:09:29;5.18;;;2.92;;
75814;SDS011;70031;45.570;14.228;2023-07-16T07:11:29;5.90;;;3.05;;
75814;SDS011;70031;45.570;14.228;2023-07-16T07:13:29;7.80;;;2.88;;
75814;SDS011;70031;45.570;14.228;2023-07-16T07:15:30;4.72;;;2.85;;
75814;SDS011;70031;45.570;14.228;2023-07-16T07:17:32;5.05;;;2.75;;
75814;SDS011;70031;45.570;14.228;2023-07-16T07:19:33;5.45;;;2.97;;
75814;SDS011;70031;45.570;14.228;2023-07-16T07:21:33;7.15;;;3.45;;
75814;SDS011;70031;45.570;14.228;2023-07-16T07:23:34;4.80;;;3.03;;
75814;SDS011;70031;45.570;14.228;2023-07-16T07:25:34;4.72;;;2.72;;
75814;SDS011;70031;45.570;14.228;2023-07-16T07:27:34;6.38;;;3.42;;
75814;SDS011;70031;45.570;14.228;2023-07-16T07:29:35;8.05;;;3.15;;
75814;SDS011;70031;45.570;14.228;2023-07-16T07:31:35;4.13;;;2.72;;
75814;SDS011;70031;45.570;14.228;2023-07-16T07:33:35;5.90;;;3.03;;
75814;SDS011;70031;45.570;14.228;2023-07-16T07:35:36;7.25;;;2.95;;
75814;SDS011;70031;45.570;14.228;2023-07-16T07:37:36;7.15;;;3.08;;
75814;SDS011;70031;45.570;14.228;2023-07-16T07:39:37;7.50;;;3.83;;
75814;SDS011;70031;45.570;14.228;2023-07-16T07:41:37;11.68;;;3.60;;
75814;SDS011;70031;45.570;14.228;2023-07-16T07:43:38;6.20;;;3.08;;
75814;SDS011;70031;45.570;14.228;2023-07-16T07:45:38;8.15;;;3.72;;
75814;SDS011;70031;45.570;14.228;2023-07-16T07:47:38;7.57;;;3.10;;
75814;SDS011;70031;45.570;14.228;2023-07-16T07:49:39;6.28;;;3.03;;
75814;SDS011;70031;45.570;14.228;2023-07-16T07:51:39;7.05;;;3.30;;
75814;SDS011;70031;45.570;14.228;2023-07-16T07:53:39;9.63;;;3.70;;
75814;SDS011;70031;45.570;14.228;2023-07-16T07:55:40;8.10;;;3.35;;
75814;SDS011;70031;45.570;14.228;2023-07-16T07:57:40;8.93;;;3.70;;
75814;SDS011;70031;45.570;14.228;2023-07-16T07:59:41;6.00;;;3.80;;
75814;SDS011;70031;45.570;14.228;2023-07-16T08:01:41;7.47;;;3.30;;
75814;SDS011;70031;45.570;14.228;2023-07-16T08:03:41;8.18;;;3.10;;
75814;SDS011;70031;45.570;14.228;2023-07-16T08:05:42;8.18;;;3.60;;
75814;SDS011;70031;45.570;14.228;2023-07-16T08:07:42;6.10;;;3.08;;
75814;SDS011;70031;45.570;14.228;2023-07-16T08:09:43;6.82;;;3.35;;
75814;SDS011;70031;45.570;14.228;2023-07-16T08:11:43;11.25;;;3.20;;
75814;SDS011;70031;45.570;14.228;2023-07-16T08:13:43;7.80;;;4.03;;
75814;SDS011;70031;45.570;14.228;2023-07-16T08:15:44;4.97;;;3.45;;
75814;SDS011;70031;45.570;14.228;2023-07-16T08:17:44;7.50;;;3.47;;
75814;SDS011;70031;45.570;14.228;2023-07-16T08:19:45;9.20;;;3.40;;
75814;SDS011;70031;45.570;14.228;2023-07-16T08:21:45;10.60;;;3.38;;
75814;SDS011;70031;45.570;14.228;2023-07-16T08:23:49;4.85;;;3.10;;
75814;SDS011;70031;45.570;14.228;2023-07-16T08:25:49;6.05;;;3.15;;
75814;SDS011;70031;45.570;14.228;2023-07-16T08:27:51;8.05;;;3.30;;
75814;SDS011;70031;45.570;14.228;2023-07-16T08:29:51;6.78;;;2.75;;
75814;SDS011;70031;45.570;14.228;2023-07-16T08:31:52;7.63;;;3.30;;
75814;SDS011;70031;45.570;14.228;2023-07-16T08:33:52;7.40;;;3.30;;
75814;SDS011;70031;45.570;14.228;2023-07-16T08:35:52;12.93;;;4.20;;
75814;SDS011;70031;45.570;14.228;2023-07-16T08:37:54;7.60;;;3.15;;
75814;SDS011;70031;45.570;14.228;2023-07-16T08:39:55;7.97;;;3.50;;
75814;SDS011;70031;45.570;14.228;2023-07-16T08:41:55;8.73;;;3.70;;
75814;SDS011;70031;45.570;14.228;2023-07-16T08:43:55;6.18;;;3.42;;
75814;SDS011;70031;45.570;14.228;2023-07-16T08:45:56;10.50;;;3.22;;
75814;SDS011;70031;45.570;14.228;2023-07-16T08:47:57;10.13;;;3.00;;
75814;SDS011;70031;45.570;14.228;2023-07-16T08:49:57;6.80;;;3.47;;
75814;SDS011;70031;45.570;14.228;2023-07-16T08:51:58;5.97;;;3.08;;
75814;SDS011;70031;45.570;14.228;2023-07-16T08:54:01;5.90;;;3.03;;
75814;SDS011;70031;45.570;14.228;2023-07-16T08:56:01;6.15;;;3.25;;
75814;SDS011;70031;45.570;14.228;2023-07-16T08:58:04;5.82;;;3.38;;
75814;SDS011;70031;45.570;14.228;2023-07-16T09:00:05;8.65;;;3.85;;
75814;SDS011;70031;45.570;14.228;2023-07-16T09:02:07;7.22;;;3.55;;
75814;SDS011;70031;45.570;14.228;2023-07-16T09:04:07;5.35;;;3.17;;
75814;SDS011;70031;45.570;14.228;2023-07-16T09:06:08;9.80;;;3.78;;
75814;SDS011;70031;45.570;14.228;2023-07-16T09:08:08;9.02;;;3.40;;
75814;SDS011;70031;45.570;14.228;2023-07-16T09:10:11;6.97;;;2.95;;
75814;SDS011;70031;45.570;14.228;2023-07-16T09:12:12;6.28;;;3.15;;
75814;SDS011;70031;45.570;14.228;2023-07-16T09:14:14;7.20;;;3.30;;
75814;SDS011;70031;45.570;14.228;2023-07-16T09:16:19;6.90;;;3.08;;
75814;SDS011;70031;45.570;14.228;2023-07-16T09:18:21;6.43;;;2.83;;
75814;SDS011;70031;45.570;14.228;2023-07-16T09:20:23;5.03;;;2.80;;
75814;SDS011;70031;45.570;14.228;2023-07-16T09:22:27;8.32;;;3.25;;
75814;SDS011;70031;45.570;14.228;2023-07-16T09:24:28;7.97;;;3.03;;
75814;SDS011;70031;45.570;14.228;2023-07-16T09:26:29;5.53;;;2.90;;
75814;SDS011;70031;45.570;14.228;2023-07-16T09:28:32;6.05;;;2.65;;
75814;SDS011;70031;45.570;14.228;2023-07-16T09:30:33;8.43;;;3.15;;
75814;SDS011;70031;45.570;14.228;2023-07-16T09:32:35;5.80;;;2.97;;
75814;SDS011;70031;45.570;14.228;2023-07-16T09:34:36;7.50;;;3.05;;
75814;SDS011;70031;45.570;14.228;2023-07-16T09:36:36;4.72;;;2.75;;
75814;SDS011;70031;45.570;14.228;2023-07-16T09:38:37;4.80;;;2.88;;
75814;SDS011;70031;45.570;14.228;2023-07-16T09:40:37;9.07;;;3.15;;
75814;SDS011;70031;45.570;14.228;2023-07-16T09:42:40;6.45;;;3.30;;
75814;SDS011;70031;45.570;14.228;2023-07-16T09:44:41;5.20;;;2.60;;
75814;SDS011;70031;45.570;14.228;2023-07-16T09:46:43;9.13;;;3.00;;
75814;SDS011;70031;45.570;14.228;2023-07-16T09:48:44;6.35;;;2.88;;
75814;SDS011;70031;45.570;14.228;2023-07-16T09:50:52;6.07;;;2.97;;
75814;SDS011;70031;45.570;14.228;2023-07-16T09:52:53;6.45;;;3.13;;
75814;SDS011;70031;45.570;14.228;2023-07-16T09:54:55;6.65;;;3.05;;
75814;SDS011;70031;45.570;14.228;2023-07-16T09:56:57;6.53;;;3.10;;
75814;SDS011;70031;45.570;14.228;2023-07-16T09:59:00;5.55;;;2.70;;
75814;SDS011;70031;45.570;14.228;2023-07-16T10:01:02;4.75;;;2.80;;
75814;SDS011;70031;45.570;14.228;2023-07-16T10:07:20;4.82;;;2.22;;
75814;SDS011;70031;45.570;14.228;2023-07-16T10:09:37;6.15;;;2.92;;
75814;SDS011;70031;45.570;14.228;2023-07-16T10:11:42;4.90;;;2.70;;
75814;SDS011;70031;45.570;14.228;2023-07-16T10:13:42;8.18;;;3.17;;
75814;SDS011;70031;45.570;14.228;2023-07-16T10:17:54;7.22;;;3.05;;
75814;SDS011;70031;45.570;14.228;2023-07-16T10:22:07;5.23;;;2.70;;
75814;SDS011;70031;45.570;14.228;2023-07-16T10:24:15;4.93;;;2.38;;
75814;SDS011;70031;45.570;14.228;2023-07-16T10:26:18;7.80;;;2.67;;
75814;SDS011;70031;45.570;14.228;2023-07-16T10:28:18;5.57;;;2.45;;
75814;SDS011;70031;45.570;14.228;2023-07-16T10:30:19;4.18;;;2.25;;
75814;SDS011;70031;45.570;14.228;2023-07-16T10:32:19;5.50;;;2.53;;
75814;SDS011;70031;45.570;14.228;2023-07-16T10:34:22;5.05;;;2.33;;
75814;SDS011;70031;45.570;14.228;2023-07-16T10:36:23;5.82;;;2.65;;
75814;SDS011;70031;45.570;14.228;2023-07-16T10:38:23;6.30;;;2.53;;
75814;SDS011;70031;45.570;14.228;2023-07-16T10:40:24;4.50;;;2.70;;
75814;SDS011;70031;45.570;14.228;2023-07-16T10:42:25;4.05;;;2.50;;
75814;SDS011;70031;45.570;14.228;2023-07-16T10:44:26;6.00;;;2.55;;
75814;SDS011;70031;45.570;14.228;2023-07-16T10:46:27;4.68;;;2.72;;
75814;SDS011;70031;45.570;14.228;2023-07-16T10:48:28;7.97;;;2.40;;
75814;SDS011;70031;45.570;14.228;2023-07-16T10:50:28;5.88;;;2.47;;
75814;SDS011;70031;45.570;14.228;2023-07-16T10:52:28;6.25;;;2.80;;
75814;SDS011;70031;45.570;14.228;2023-07-16T10:54:29;6.45;;;2.58;;
75814;SDS011;70031;45.570;14.228;2023-07-16T10:56:29;5.70;;;2.53;;
75814;SDS011;70031;45.570;14.228;2023-07-16T10:58:30;5.25;;;2.20;;
75814;SDS011;70031;45.570;14.228;2023-07-16T11:00:30;5.03;;;2.38;;
75814;SDS011;70031;45.570;14.228;2023-07-16T11:02:30;7.22;;;3.17;;
75814;SDS011;70031;45.570;14.228;2023-07-16T11:04:34;7.50;;;2.55;;
75814;SDS011;70031;45.570;14.228;2023-07-16T11:06:35;4.25;;;2.25;;
75814;SDS011;70031;45.570;14.228;2023-07-16T11:08:35;6.28;;;2.92;;
75814;SDS011;70031;45.570;14.228;2023-07-16T11:10:36;5.25;;;3.00;;
75814;SDS011;70031;45.570;14.228;2023-07-16T11:12:36;4.32;;;2.30;;
75814;SDS011;70031;45.570;14.228;2023-07-16T11:14:37;4.93;;;2.50;;
75814;SDS011;70031;45.570;14.228;2023-07-16T11:16:38;5.68;;;2.60;;
75814;SDS011;70031;45.570;14.228;2023-07-16T11:18:39;8.82;;;2.85;;
75814;SDS011;70031;45.570;14.228;2023-07-16T11:20:41;8.60;;;3.15;;
75814;SDS011;70031;45.570;14.228;2023-07-16T11:22:42;4.40;;;2.38;;
75814;SDS011;70031;45.570;14.228;2023-07-16T11:24:51;6.22;;;3.13;;
75814;SDS011;70031;45.570;14.228;2023-07-16T11:26:52;4.30;;;2.35;;
75814;SDS011;70031;45.570;14.228;2023-07-16T11:28:53;6.78;;;2.72;;
75814;SDS011;70031;45.570;14.228;2023-07-16T11:30:54;5.18;;;2.85;;
75814;SDS011;70031;45.570;14.228;2023-07-16T11:32:54;4.93;;;2.60;;
75814;SDS011;70031;45.570;14.228;2023-07-16T11:34:58;5.13;;;2.67;;
75814;SDS011;70031;45.570;14.228;2023-07-16T11:37:09;5.88;;;2.63;;
75814;SDS011;70031;45.570;14.228;2023-07-16T11:39:11;5.60;;;2.47;;
75814;SDS011;70031;45.570;14.228;2023-07-16T11:41:12;5.78;;;2.83;;
75814;SDS011;70031;45.570;14.228;2023-07-16T11:43:15;6.55;;;2.95;;
75814;SDS011;70031;45.570;14.228;2023-07-16T11:45:22;5.15;;;2.60;;
75814;SDS011;70031;45.570;14.228;2023-07-16T11:47:26;7.47;;;2.95;;
75814;SDS011;70031;45.570;14.228;2023-07-16T11:49:27;6.38;;;2.90;;
75814;SDS011;70031;45.570;14.228;2023-07-16T11:51:28;6.40;;;2.50;;
75814;SDS011;70031;45.570;14.228;2023-07-16T11:53:28;6.95;;;2.92;;
75814;SDS011;70031;45.570;14.228;2023-07-16T11:55:29;4.32;;;2.80;;
75814;SDS011;70031;45.570;14.228;2023-07-16T11:57:29;4.72;;;2.65;;
75814;SDS011;70031;45.570;14.228;2023-07-16T11:59:30;5.47;;;3.00;;
75814;SDS011;70031;45.570;14.228;2023-07-16T12:01:30;5.70;;;2.75;;
75814;SDS011;70031;45.570;14.228;2023-07-16T12:03:31;4.32;;;2.45;;
75814;SDS011;70031;45.570;14.228;2023-07-16T12:05:31;5.53;;;2.53;;
75814;SDS011;70031;45.570;14.228;2023-07-16T12:09:36;5.45;;;3.05;;
75814;SDS011;70031;45.570;14.228;2023-07-16T12:11:36;5.85;;;2.53;;
75814;SDS011;70031;45.570;14.228;2023-07-16T12:13:38;4.65;;;2.90;;
75814;SDS011;70031;45.570;14.228;2023-07-16T12:15:38;5.47;;;2.80;;
75814;SDS011;70031;45.570;14.228;2023-07-16T12:17:39;5.97;;;2.55;;
75814;SDS011;70031;45.570;14.228;2023-07-16T12:19:39;4.45;;;2.50;;
75814;SDS011;70031;45.570;14.228;2023-07-16T12:21:39;4.65;;;2.53;;